Time;durP1;ratioP1;P1;durP2;ratioP2;P2;SDS_P1;SDS_P2;PMS_P1;PMS_P2;Temp;Humidity;BMP_temperature;BMP_pressure;BME280_temperature;BME280_humidity;BME280_pressure;Samples;Min_cycle;Max_cycle;Signal;HPM_P1;HPM_P2
2022/08/06 00:00:52;;;;;;;5.22;1.40;;;15.00;99.90;;;;;;3059828;19;20034;-78
2022/08/06 00:01:56;;;;;;;4.47;1.50;;;14.90;99.90;;;;;;3059975;19;20025;-77
2022/08/06 00:03:00;;;;;;;2.72;1.40;;;14.90;99.90;;;;;;3060272;19;20015;-77
2022/08/06 00:04:02;;;;;;;2.90;1.50;;;14.80;99.90;;;;;;3061932;19;20014;-78
2022/08/06 00:05:07;;;;;;;3.65;1.42;;;15.00;99.90;;;;;;3060572;19;20022;-78
2022/08/06 00:06:08;;;;;;;5.47;1.50;;;15.00;99.90;;;;;;3060568;19;20011;-78
2022/08/06 00:07:12;;;;;;;3.88;1.42;;;14.90;99.90;;;;;;3060595;19;20014;-77
2022/08/06 00:08:13;;;;;;;3.10;1.30;;;15.00;99.90;;;;;;3059978;19;20039;-77
2022/08/06 00:09:17;;;;;;;4.40;1.70;;;15.00;99.90;;;;;;3059982;19;20035;-77
2022/08/06 00:10:21;;;;;;;3.60;1.50;;;14.70;99.90;;;;;;3060174;19;20010;-78
2022/08/06 00:11:25;;;;;;;3.03;1.60;;;14.90;99.90;;;;;;3059364;19;20031;-78
2022/08/06 00:12:29;;;;;;;3.33;1.60;;;14.70;99.90;;;;;;3061295;19;20015;-77
2022/08/06 00:13:31;;;;;;;4.32;1.50;;;14.90;99.90;;;;;;3060949;19;20018;-77
2022/08/06 00:14:35;;;;;;;3.08;1.40;;;14.90;99.90;;;;;;3060453;19;20018;-77
2022/08/06 00:15:37;;;;;;;3.15;1.65;;;14.70;99.90;;;;;;3062381;19;20530;-77
2022/08/06 00:16:41;;;;;;;3.10;1.50;;;14.80;99.90;;;;;;3061421;19;20021;-76
2022/08/06 00:17:43;;;;;;;3.50;1.52;;;15.00;99.90;;;;;;3060032;19;20477;-77
2022/08/06 00:18:46;;;;;;;;;;;14.80;99.90;;;;;;3061867;19;20050;-77
2022/08/06 00:19:48;;;;;;;2.05;1.40;;;14.80;99.90;;;;;;3058956;19;20253;-77
2022/08/06 00:20:51;;;;;;;3.97;1.52;;;14.60;99.90;;;;;;3059773;19;19998;-77
2022/08/06 00:21:53;;;;;;;3.65;1.60;;;14.80;99.90;;;;;;3059506;19;20507;-76
2022/08/06 00:22:57;;;;;;;5.97;1.73;;;14.70;99.90;;;;;;3059553;19;20022;-76
2022/08/06 00:23:59;;;;;;;2.28;1.50;;;14.60;99.90;;;;;;3059307;19;20368;-76
2022/08/06 00:25:03;;;;;;;4.50;1.90;;;14.70;99.90;;;;;;3059093;19;20010;-76
2022/08/06 00:26:04;;;;;;;4.68;1.95;;;14.60;99.90;;;;;;3059375;19;20021;-76
2022/08/06 00:27:10;;;;;;;3.72;1.55;;;14.60;99.90;;;;;;3059764;19;20535;-77
2022/08/06 00:28:12;;;;;;;4.18;1.77;;;14.50;99.90;;;;;;3058958;19;20006;-76
2022/08/06 00:29:16;;;;;;;2.65;1.60;;;14.60;99.90;;;;;;3061088;19;20044;-77
2022/08/06 00:30:17;;;;;;;3.83;1.80;;;14.60;99.90;;;;;;3060670;19;20022;-78
2022/08/06 00:31:21;;;;;;;4.72;1.73;;;14.50;99.90;;;;;;3060500;19;20023;-77
2022/08/06 00:32:22;;;;;;;4.43;1.88;;;14.70;99.90;;;;;;3059103;19;20026;-77
2022/08/06 00:33:26;;;;;;;5.55;1.48;;;14.60;99.90;;;;;;3060221;19;20018;-77
2022/08/06 00:34:27;;;;;;;5.57;1.90;;;14.60;99.90;;;;;;3059116;19;20038;-77
2022/08/06 00:35:31;;;;;;;6.28;1.63;;;14.50;99.90;;;;;;3059283;19;20354;-77
2022/08/06 00:36:33;;;;;;;4.25;1.70;;;14.50;99.90;;;;;;3059288;19;20018;-77
2022/08/06 00:37:37;;;;;;;5.10;1.90;;;14.70;99.90;;;;;;3060903;19;20018;-78
2022/08/06 00:38:38;;;;;;;5.38;2.10;;;14.60;99.90;;;;;;3058845;19;20027;-77
2022/08/06 00:39:42;;;;;;;3.95;1.55;;;14.60;99.90;;;;;;3059267;19;20002;-77
2022/08/06 00:40:43;;;;;;;4.65;1.65;;;14.50;99.90;;;;;;3059030;19;20021;-77
2022/08/06 00:41:47;;;;;;;4.50;1.50;;;14.50;99.90;;;;;;3059723;19;20002;-77
2022/08/06 00:42:52;;;;;;;2.65;1.60;;;14.60;99.90;;;;;;3057427;19;20018;-77
2022/08/06 00:43:57;;;;;;;2.80;1.60;;;14.70;99.90;;;;;;3059700;19;20035;-77
2022/08/06 00:45:00;;;;;;;3.25;1.63;;;14.40;99.90;;;;;;3059006;19;20006;-77
2022/08/06 00:46:04;;;;;;;3.10;1.80;;;14.40;99.90;;;;;;3059446;19;20377;-77
2022/08/06 00:47:05;;;;;;;4.78;1.67;;;14.30;99.90;;;;;;3060313;19;20104;-77
2022/08/06 00:48:09;;;;;;;4.22;1.58;;;14.30;99.90;;;;;;3059894;19;20018;-78
2022/08/06 00:49:11;;;;;;;3.13;1.40;;;14.40;99.90;;;;;;3059157;19;20019;-78
2022/08/06 00:50:15;;;;;;;2.35;1.60;;;14.30;99.90;;;;;;3059720;19;20019;-78
2022/08/06 00:51:16;;;;;;;3.65;1.70;;;14.30;99.90;;;;;;3059229;19;20010;-78
2022/08/06 00:52:20;;;;;;;2.50;1.40;;;15.50;99.90;;;;;;3059144;19;20014;-77
2022/08/06 00:53:21;;;;;;;2.83;1.75;;;14.50;99.90;;;;;;3058669;19;20039;-77
2022/08/06 00:54:26;;;;;;;3.55;1.83;;;14.40;99.90;;;;;;3057670;19;20488;-78
2022/08/06 00:55:28;;;;;;;4.57;1.60;;;14.40;99.90;;;;;;3056183;19;20025;-78
2022/08/06 00:56:32;;;;;;;3.00;1.52;;;14.30;99.90;;;;;;3058768;19;20026;-77
2022/08/06 00:57:33;;;;;;;3.25;1.77;;;14.30;99.90;;;;;;3059436;19;20015;-77
2022/08/06 00:58:40;;;;;;;2.65;1.55;;;14.20;99.90;;;;;;3059674;19;20039;-77
2022/08/06 00:59:44;;;;;;;3.30;1.67;;;14.40;99.90;;;;;;3059013;19;20021;-77
2022/08/06 01:00:45;;;;;;;3.72;1.90;;;14.40;99.90;;;;;;3058659;19;20027;-78
2022/08/06 01:01:49;;;;;;;3.45;2.00;;;14.40;99.90;;;;;;3058209;19;20017;-77
2022/08/06 01:02:50;;;;;;;3.72;1.90;;;14.30;99.90;;;;;;3059382;19;20051;-77
2022/08/06 01:03:54;;;;;;;3.20;1.52;;;14.10;99.90;;;;;;3059546;19;20010;-77
2022/08/06 01:04:55;;;;;;;5.03;1.70;;;14.30;99.90;;;;;;3059528;19;20019;-77
2022/08/06 01:05:59;;;;;;;4.10;1.60;;;14.20;99.90;;;;;;3058095;19;20093;-78
2022/08/06 01:07:01;;;;;;;4.35;1.70;;;14.20;99.90;;;;;;3058356;19;20038;-77
2022/08/06 01:08:05;;;;;;;3.35;1.42;;;14.30;99.90;;;;;;3060414;19;20074;-77
2022/08/06 01:09:06;;;;;;;3.75;1.63;;;14.30;99.90;;;;;;3058538;19;20471;-77
2022/08/06 01:10:10;;;;;;;1.80;1.60;;;14.40;99.90;;;;;;3059899;19;20010;-77
2022/08/06 01:11:12;;;;;;;2.50;1.45;;;14.50;99.90;;;;;;3060790;19;20018;-77
2022/08/06 01:12:16;;;;;;;5.03;1.70;;;14.40;99.90;;;;;;3058684;19;20080;-77
2022/08/06 01:13:17;;;;;;;4.97;1.70;;;14.50;99.90;;;;;;3058523;19;20018;-77
2022/08/06 01:14:24;;;;;;;5.15;1.65;;;14.50;99.90;;;;;;3058994;19;20077;-77
2022/08/06 01:15:25;;;;;;;3.80;1.60;;;14.40;99.90;;;;;;3058397;19;20463;-76
2022/08/06 01:16:38;;;;;;;2.80;1.60;;;14.40;99.90;;;;;;3060384;19;20081;-77
2022/08/06 01:17:43;;;;;;;6.47;1.50;;;14.30;99.90;;;;;;3058784;19;20021;-77
2022/08/06 01:18:53;;;;;;;3.08;1.58;;;14.60;99.90;;;;;;3058590;19;20483;-77
2022/08/06 01:20:08;;;;;;;2.90;1.48;;;14.20;99.90;;;;;;3058401;19;20036;-77
2022/08/06 01:21:22;;;;;;;2.92;1.50;;;14.40;99.90;;;;;;3058864;19;20353;-77
2022/08/06 01:22:42;;;;;;;4.05;1.50;;;14.40;99.90;;;;;;3059533;19;20010;-77
2022/08/06 01:24:00;;;;;;;2.58;1.50;;;14.30;99.90;;;;;;3059206;19;20022;-77
2022/08/06 01:25:32;;;;;;;2.85;1.58;;;14.30;99.90;;;;;;3058243;19;20014;-77
2022/08/06 01:26:41;;;;;;;3.45;1.40;;;14.20;99.90;;;;;;3056411;19;20354;-77
2022/08/06 01:27:50;;;;;;;2.88;1.40;;;14.10;99.90;;;;;;3058827;19;20034;-77
2022/08/06 01:28:58;;;;;;;4.47;1.50;;;14.00;99.90;;;;;;3058352;19;20014;-77
2022/08/06 01:30:04;;;;;;;5.38;1.35;;;14.30;99.90;;;;;;3059370;19;20022;-77
2022/08/06 01:31:14;;;;;;;4.03;1.70;;;14.20;99.90;;;;;;3057850;19;20353;-77
2022/08/06 01:32:21;;;;;;;3.17;1.50;;;14.30;99.90;;;;;;3057012;19;20018;-77
2022/08/06 01:33:30;;;;;;;5.28;1.50;;;14.00;99.90;;;;;;3059622;19;20018;-77
2022/08/06 01:34:38;;;;;;;3.20;1.30;;;14.20;99.90;;;;;;3056773;19;20483;-77
2022/08/06 01:35:45;;;;;;;2.40;1.50;;;14.20;99.90;;;;;;3058188;19;20007;-77
2022/08/06 01:36:52;;;;;;;2.55;1.35;;;14.10;99.90;;;;;;3058244;19;20388;-77
2022/08/06 01:38:09;;;;;;;3.45;1.48;;;14.20;99.90;;;;;;3058747;19;20019;-77
2022/08/06 01:39:13;;;;;;;2.72;1.42;;;15.30;99.90;;;;;;3056918;19;20093;-77
2022/08/06 01:40:22;;;;;;;2.70;1.38;;;14.00;99.90;;;;;;3058487;19;20341;-77
2022/08/06 01:41:39;;;;;;;4.00;1.52;;;15.00;99.90;;;;;;3058273;19;20014;-78
2022/08/06 01:42:45;;;;;;;2.50;1.38;;;15.30;99.90;;;;;;3058585;19;20340;-77
2022/08/06 01:43:49;;;;;;;3.45;1.25;;;13.90;99.90;;;;;;3058359;19;20019;-78
2022/08/06 01:44:56;;;;;;;4.22;1.40;;;13.90;99.90;;;;;;3058398;19;20011;-77
2022/08/06 01:46:00;;;;;;;3.78;1.40;;;13.90;99.90;;;;;;3058524;19;20018;-77
2022/08/06 01:47:08;;;;;;;2.30;1.38;;;14.00;99.90;;;;;;3058145;19;20010;-77
2022/08/06 01:48:14;;;;;;;3.13;1.55;;;13.90;99.90;;;;;;3059217;19;20019;-78
2022/08/06 01:49:21;;;;;;;2.50;1.15;;;13.80;99.90;;;;;;3057592;19;20536;-77
2022/08/06 01:50:27;;;;;;;2.58;1.40;;;13.80;99.90;;;;;;3058096;19;20127;-77
2022/08/06 01:51:32;;;;;;;3.33;1.50;;;13.90;99.90;;;;;;3058817;19;20020;-78
2022/08/06 01:52:38;;;;;;;6.30;1.63;;;13.80;99.90;;;;;;3058702;19;20467;-78
2022/08/06 01:53:44;;;;;;;2.08;1.30;;;13.70;99.90;;;;;;3057412;19;20092;-77
2022/08/06 01:54:47;;;;;;;3.75;1.52;;;13.70;99.90;;;;;;3057789;19;20023;-78
2022/08/06 01:55:56;;;;;;;3.28;1.30;;;13.80;99.90;;;;;;3058270;19;20026;-77
2022/08/06 01:57:00;;;;;;;4.97;1.45;;;13.80;99.90;;;;;;3057823;19;20358;-77
2022/08/06 01:58:06;;;;;;;2.28;1.40;;;13.60;99.90;;;;;;3058414;19;20024;-78
2022/08/06 01:59:15;;;;;;;2.65;1.45;;;13.50;99.90;;;;;;3060352;19;20354;-77
2022/08/06 02:00:20;;;;;;;3.08;1.52;;;13.60;99.90;;;;;;3058086;19;20042;-77
2022/08/06 02:01:26;;;;;;;2.38;1.60;;;13.70;99.90;;;;;;3059013;19;20022;-77
2022/08/06 02:02:30;;;;;;;3.13;1.35;;;13.40;99.90;;;;;;3058920;19;20018;-77
2022/08/06 02:03:38;;;;;;;2.25;1.25;;;13.60;99.90;;;;;;3057245;19;20018;-77
2022/08/06 02:04:42;;;;;;;2.60;1.38;;;13.50;99.90;;;;;;3059904;19;20011;-77
2022/08/06 02:05:47;;;;;;;2.67;1.55;;;14.50;99.90;;;;;;3058460;19;20022;-77
2022/08/06 02:06:53;;;;;;;3.47;1.40;;;13.30;99.90;;;;;;3059742;19;20010;-77
2022/08/06 02:07:56;;;;;;;2.40;1.40;;;13.40;99.90;;;;;;3061393;19;20003;-77
2022/08/06 02:09:03;;;;;;;2.08;1.38;;;13.40;99.90;;;;;;3061243;19;20011;-77
2022/08/06 02:10:06;;;;;;;2.55;1.40;;;13.50;99.90;;;;;;3061850;19;20022;-78
2022/08/06 02:11:13;;;;;;;3.35;1.58;;;13.60;99.90;;;;;;3061357;19;20014;-77
2022/08/06 02:12:19;;;;;;;2.20;1.30;;;13.60;99.90;;;;;;3062101;19;20047;-77
2022/08/06 02:13:26;;;;;;;3.30;1.48;;;14.40;99.90;;;;;;3060624;19;20014;-78
2022/08/06 02:14:32;;;;;;;3.70;1.30;;;13.70;99.90;;;;;;3061735;19;20017;-77
2022/08/06 02:15:38;;;;;;;4.63;1.50;;;13.60;99.90;;;;;;3061053;19;20062;-77
2022/08/06 02:16:42;;;;;;;2.35;1.50;;;13.40;99.90;;;;;;3060913;19;20512;-77
2022/08/06 02:17:51;;;;;;;3.17;1.55;;;13.40;99.90;;;;;;3060653;19;20018;-78
2022/08/06 02:18:55;;;;;;;3.40;1.40;;;13.50;99.90;;;;;;3061062;19;20018;-78
2022/08/06 02:20:00;;;;;;;1.67;1.20;;;13.40;99.90;;;;;;3061601;19;20082;-79
2022/08/06 02:21:06;;;;;;;2.47;1.20;;;13.60;99.90;;;;;;3060555;19;20030;-79
2022/08/06 02:22:10;;;;;;;2.33;1.20;;;13.50;99.90;;;;;;3061520;19;20022;-78
2022/08/06 02:23:15;;;;;;;4.15;1.40;;;13.60;99.90;;;;;;3061341;19;20011;-78
2022/08/06 02:24:21;;;;;;;2.72;1.30;;;13.50;99.90;;;;;;3060857;19;20018;-79
2022/08/06 02:25:23;;;;;;;4.10;1.73;;;13.50;99.90;;;;;;3060772;19;20031;-78
2022/08/06 02:26:29;;;;;;;1.80;1.38;;;13.40;99.90;;;;;;3061158;19;20010;-79
2022/08/06 02:27:32;;;;;;;3.17;1.40;;;13.50;99.90;;;;;;3061581;19;20022;-78
2022/08/06 02:28:38;;;;;;;1.92;1.20;;;13.50;99.90;;;;;;3062786;19;20025;-79
2022/08/06 02:29:44;;;;;;;2.35;1.35;;;13.50;99.90;;;;;;3060209;19;20361;-78
2022/08/06 02:30:51;;;;;;;2.95;1.50;;;13.40;99.90;;;;;;3059908;19;20003;-78
2022/08/06 02:31:54;;;;;;;1.33;1.17;;;13.30;99.90;;;;;;3062299;19;20970;-77
2022/08/06 02:32:58;;;;;;;3.20;1.33;;;14.00;99.90;;;;;;3060509;19;20010;-78
2022/08/06 02:34:00;;;;;;;2.97;1.50;;;13.30;99.90;;;;;;3061823;19;20565;-79
2022/08/06 02:35:04;;;;;;;;;;;13.30;99.90;;;;;;3062989;19;20046;-79
2022/08/06 02:36:13;;;;;;;3.50;1.55;;;13.90;99.90;;;;;;3060552;19;19929;-79
2022/08/06 02:37:23;;;;;;;3.28;1.38;;;13.30;99.90;;;;;;3060708;19;20023;-79
2022/08/06 02:38:31;;;;;;;3.25;1.42;;;13.30;99.90;;;;;;3061048;19;20009;-78
2022/08/06 02:39:40;;;;;;;3.97;1.42;;;13.30;99.90;;;;;;3060858;19;20374;-78
2022/08/06 02:40:46;;;;;;;2.30;1.45;;;13.20;99.90;;;;;;3061682;19;20110;-79
2022/08/06 02:41:59;;;;;;;3.33;1.70;;;13.20;99.90;;;;;;3060912;19;20021;-79
2022/08/06 02:43:05;;;;;;;2.58;1.42;;;13.30;99.90;;;;;;3061309;19;20098;-79
2022/08/06 02:44:14;;;;;;;3.20;1.20;;;13.20;99.90;;;;;;3059752;19;20197;-78
2022/08/06 02:45:21;;;;;;;2.00;1.40;;;13.20;99.90;;;;;;3060265;19;20007;-78
2022/08/06 02:46:28;;;;;;;3.28;1.40;;;13.20;99.90;;;;;;3061327;19;20363;-79
2022/08/06 02:47:35;;;;;;;4.43;1.50;;;13.10;99.90;;;;;;3060660;19;20014;-79
2022/08/06 02:48:46;;;;;;;3.00;1.40;;;13.20;99.90;;;;;;3061687;19;20763;-79
2022/08/06 02:49:53;;;;;;;2.90;1.40;;;12.90;99.90;;;;;;3060900;19;20033;-78
2022/08/06 02:50:59;;;;;;;4.13;1.63;;;13.40;99.90;;;;;;3061551;19;20467;-79
2022/08/06 02:52:04;;;;;;;2.72;1.23;;;13.10;99.90;;;;;;3061686;19;20014;-79
2022/08/06 02:53:11;;;;;;;4.53;1.45;;;13.10;99.90;;;;;;3061019;19;20007;-79
2022/08/06 02:54:17;;;;;;;2.45;1.35;;;12.90;99.90;;;;;;3059511;19;20018;-79
2022/08/06 02:55:24;;;;;;;3.45;1.65;;;12.90;99.90;;;;;;3062064;19;20073;-79
2022/08/06 02:56:28;;;;;;;3.55;1.55;;;13.50;99.90;;;;;;3059119;19;20011;-79
2022/08/06 02:57:35;;;;;;;4.70;1.55;;;14.40;99.90;;;;;;3060587;19;20015;-78
2022/08/06 02:58:40;;;;;;;2.70;1.40;;;13.30;99.90;;;;;;3060496;19;20034;-79
2022/08/06 02:59:48;;;;;;;2.85;1.50;;;13.20;99.90;;;;;;3060477;19;20017;-78
2022/08/06 03:00:55;;;;;;;2.53;1.40;;;13.10;99.90;;;;;;3061542;19;20015;-79
2022/08/06 03:02:02;;;;;;;3.47;1.40;;;13.00;99.90;;;;;;3059357;19;20723;-79
2022/08/06 03:03:07;;;;;;;3.17;1.27;;;12.80;99.90;;;;;;3062715;19;20022;-79
2022/08/06 03:04:12;;;;;;;3.33;1.30;;;13.90;99.90;;;;;;3060530;19;19998;-79
2022/08/06 03:05:19;;;;;;;1.98;1.25;;;12.90;99.90;;;;;;3061626;19;20035;-79
2022/08/06 03:06:26;;;;;;;3.05;1.42;;;12.90;99.90;;;;;;3062359;19;20010;-79
2022/08/06 03:07:30;;;;;;;3.72;1.50;;;13.00;99.90;;;;;;3060816;19;20475;-79
2022/08/06 03:08:35;;;;;;;3.85;1.40;;;13.30;99.90;;;;;;3060737;19;20019;-79
2022/08/06 03:09:38;;;;;;;3.97;1.48;;;12.90;99.90;;;;;;3060563;19;20470;-79
2022/08/06 03:10:43;;;;;;;3.40;1.58;;;13.50;99.90;;;;;;3060336;19;20014;-77
2022/08/06 03:11:46;;;;;;;1.98;1.38;;;12.90;99.90;;;;;;3060979;19;20507;-79
2022/08/06 03:12:51;;;;;;;2.85;1.45;;;12.80;99.90;;;;;;3060363;19;20007;-79
2022/08/06 03:13:54;;;;;;;4.60;1.75;;;12.80;99.90;;;;;;3059938;19;20034;-79
2022/08/06 03:15:01;;;;;;;4.25;1.48;;;12.80;99.90;;;;;;3059633;19;20042;-79
2022/08/06 03:16:07;;;;;;;3.10;1.63;;;12.80;99.90;;;;;;3061825;19;20018;-79
2022/08/06 03:17:15;;;;;;;2.13;1.50;;;12.80;99.90;;;;;;3059769;19;20029;-79
2022/08/06 03:18:18;;;;;;;2.67;1.50;;;13.00;99.90;;;;;;3060684;19;20026;-79
2022/08/06 03:19:24;;;;;;;4.57;1.60;;;12.90;99.90;;;;;;3060172;19;20025;-78
2022/08/06 03:20:27;;;;;;;1.85;1.48;;;12.70;99.90;;;;;;3060399;19;20365;-79
2022/08/06 03:21:33;;;;;;;4.30;1.60;;;10.60;99.90;;;;;;3060240;19;20011;-78
2022/08/06 03:22:36;;;;;;;2.60;1.50;;;12.70;99.90;;;;;;3060702;19;20042;-78
2022/08/06 03:23:40;;;;;;;2.97;1.63;;;12.60;99.90;;;;;;3060331;19;20018;-78
2022/08/06 03:24:44;;;;;;;2.28;1.30;;;12.70;99.90;;;;;;3059366;19;20014;-79
2022/08/06 03:25:50;;;;;;;2.88;1.40;;;12.90;99.90;;;;;;3060690;19;20010;-79
2022/08/06 03:26:53;;;;;;;2.47;1.40;;;12.50;99.90;;;;;;3060389;19;20014;-79
2022/08/06 03:27:59;;;;;;;1.92;1.40;;;12.70;99.90;;;;;;3059812;19;20015;-79
2022/08/06 03:29:00;;;;;;;3.13;1.48;;;12.60;99.90;;;;;;3060750;19;20410;-79
2022/08/06 03:30:05;;;;;;;2.70;1.60;;;12.60;99.90;;;;;;3062863;19;20023;-79
2022/08/06 03:31:13;;;;;;;2.00;1.45;;;12.60;99.90;;;;;;3065665;19;20023;-79
2022/08/06 03:32:16;;;;;;;3.22;1.42;;;12.60;99.90;;;;;;3063392;19;20027;-79
2022/08/06 03:33:21;;;;;;;2.13;1.35;;;12.70;99.90;;;;;;3065531;19;20030;-79
2022/08/06 03:34:23;;;;;;;3.92;1.50;;;12.70;99.90;;;;;;3065934;19;20348;-79
2022/08/06 03:35:28;;;;;;;2.90;1.70;;;12.40;99.90;;;;;;3063486;19;20499;-79
2022/08/06 03:36:32;;;;;;;2.40;1.40;;;12.50;99.90;;;;;;3064444;19;20022;-78
2022/08/06 03:37:35;;;;;;;2.75;1.45;;;12.60;99.90;;;;;;3062429;19;20452;-79
2022/08/06 03:38:42;;;;;;;5.32;1.80;;;12.60;99.90;;;;;;3065282;19;20018;-78
2022/08/06 03:39:43;;;;;;;3.17;1.65;;;;;;;;;;3063270;19;20014;-79
2022/08/06 03:40:49;;;;;;;;;;;12.70;99.90;;;;;;3062466;19;20077;-79
2022/08/06 03:41:51;;;;;;;4.47;1.70;;;12.50;99.90;;;;;;3060169;19;19925;-79
2022/08/06 03:42:56;;;;;;;2.85;1.77;;;12.40;99.90;;;;;;3060715;19;20499;-79
2022/08/06 03:43:57;;;;;;;4.50;1.67;;;12.60;99.90;;;;;;3059860;19;20019;-79
2022/08/06 03:45:01;;;;;;;4.18;1.77;;;12.20;99.90;;;;;;3060633;19;20108;-79
2022/08/06 03:46:05;;;;;;;2.00;1.60;;;12.50;99.90;;;;;;3059272;19;20015;-79
2022/08/06 03:47:15;;;;;;;6.13;1.75;;;12.50;99.90;;;;;;3060345;19;20009;-80
2022/08/06 03:48:24;;;;;;;2.67;1.80;;;12.50;99.90;;;;;;3061574;19;20014;-79
2022/08/06 03:49:33;;;;;;;3.42;1.75;;;12.40;99.90;;;;;;3060559;19;20015;-79
2022/08/06 03:50:43;;;;;;;2.30;1.65;;;12.40;99.90;;;;;;3060194;19;20030;-79
2022/08/06 03:51:47;;;;;;;3.72;1.95;;;12.10;99.90;;;;;;3060458;19;20007;-79
2022/08/06 03:52:54;;;;;;;2.92;1.80;;;12.40;99.90;;;;;;3060933;19;20042;-79
2022/08/06 03:54:01;;;;;;;3.53;1.70;;;12.30;99.90;;;;;;3060280;19;20020;-79
2022/08/06 03:55:08;;;;;;;4.07;1.70;;;12.60;99.90;;;;;;3059298;19;20014;-79
2022/08/06 03:56:14;;;;;;;3.10;2.20;;;12.70;99.90;;;;;;3060359;19;20486;-79
2022/08/06 03:57:27;;;;;;;2.58;1.88;;;12.50;99.90;;;;;;3060696;19;20094;-79
2022/08/06 03:58:29;;;;;;;4.25;1.92;;;12.60;99.90;;;;;;3059124;19;20019;-79
2022/08/06 03:59:35;;;;;;;4.93;1.90;;;12.30;99.90;;;;;;3060897;19;20015;-79
2022/08/06 04:00:41;;;;;;;3.85;1.98;;;12.20;99.90;;;;;;3059368;19;20014;-79
2022/08/06 04:01:47;;;;;;;4.20;2.33;;;12.30;99.90;;;;;;3058699;19;20083;-79
2022/08/06 04:02:54;;;;;;;4.65;1.90;;;12.70;99.90;;;;;;3061992;19;20046;-78
2022/08/06 04:04:00;;;;;;;3.38;2.05;;;12.30;99.90;;;;;;3060272;19;20050;-80
2022/08/06 04:05:02;;;;;;;3.67;1.85;;;13.20;99.90;;;;;;3061122;19;20006;-79
2022/08/06 04:06:09;;;;;;;2.97;1.83;;;12.50;99.90;;;;;;3060197;19;20031;-79
2022/08/06 04:07:14;;;;;;;3.10;1.80;;;12.20;99.90;;;;;;3060570;19;20029;-79
2022/08/06 04:08:19;;;;;;;5.93;2.00;;;12.20;99.90;;;;;;3060185;19;20014;-79
2022/08/06 04:09:21;;;;;;;4.72;2.08;;;13.20;99.90;;;;;;3059552;19;20011;-80
2022/08/06 04:10:27;;;;;;;2.70;1.83;;;12.20;99.90;;;;;;3060667;19;20112;-80
2022/08/06 04:11:32;;;;;;;4.68;2.35;;;12.50;99.90;;;;;;3059139;19;20066;-79
2022/08/06 04:12:33;;;;;;;3.80;2.00;;;12.50;99.90;;;;;;3059105;19;20023;-79
2022/08/06 04:13:38;;;;;;;2.50;2.10;;;12.30;99.90;;;;;;3060404;19;20017;-79
2022/08/06 04:14:40;;;;;;;6.32;2.03;;;12.20;99.90;;;;;;3058984;19;20574;-80
2022/08/06 04:15:44;;;;;;;3.92;2.15;;;12.20;99.90;;;;;;3059117;19;20487;-79
2022/08/06 04:16:48;;;;;;;3.00;1.90;;;12.40;99.90;;;;;;3059044;19;20018;-80
2022/08/06 04:17:57;;;;;;;4.05;2.20;;;12.20;99.90;;;;;;3059315;19;20448;-80
2022/08/06 04:18:59;;;;;;;3.65;2.00;;;12.70;99.90;;;;;;3059884;19;20353;-79
2022/08/06 04:20:04;;;;;;;4.75;2.20;;;12.20;99.90;;;;;;3057926;19;20021;-80
2022/08/06 04:21:13;;;;;;;4.22;2.22;;;12.20;99.90;;;;;;3061436;19;20381;-80
2022/08/06 04:22:15;;;;;;;4.25;2.30;;;12.40;99.90;;;;;;3061496;19;20483;-80
2022/08/06 04:23:19;;;;;;;4.07;2.03;;;12.30;99.90;;;;;;3059325;19;20018;-80
2022/08/06 04:24:21;;;;;;;3.95;2.10;;;12.40;99.90;;;;;;3059801;19;20488;-80
2022/08/06 04:25:27;;;;;;;2.90;2.15;;;12.50;99.90;;;;;;3058791;19;20467;-80
2022/08/06 04:26:29;;;;;;;4.57;2.00;;;12.30;99.90;;;;;;3059827;19;20010;-80
2022/08/06 04:27:35;;;;;;;5.05;2.20;;;12.30;99.90;;;;;;3060291;19;20104;-80
2022/08/06 04:28:41;;;;;;;4.05;2.40;;;12.20;99.90;;;;;;3061521;19;20039;-80
2022/08/06 04:29:46;;;;;;;4.45;2.22;;;12.90;99.90;;;;;;3059255;19;20018;-80
2022/08/06 04:30:49;;;;;;;3.53;2.22;;;12.20;99.90;;;;;;3058829;19;20022;-79
2022/08/06 04:31:54;;;;;;;4.97;2.38;;;12.20;99.90;;;;;;3058056;19;20007;-80
2022/08/06 04:32:59;;;;;;;4.50;2.50;;;13.00;99.90;;;;;;3058531;19;20018;-80
2022/08/06 04:34:04;;;;;;;3.10;2.10;;;12.20;99.90;;;;;;3059528;19;20336;-79
2022/08/06 04:35:08;;;;;;;5.35;2.42;;;13.50;99.90;;;;;;3058496;19;20019;-79
2022/08/06 04:36:13;;;;;;;4.72;2.33;;;12.30;99.90;;;;;;3059894;19;20026;-79
2022/08/06 04:37:14;;;;;;;5.50;2.42;;;12.50;99.90;;;;;;3058719;19;20011;-80
2022/08/06 04:38:19;;;;;;;;;;;12.40;99.90;;;;;;3060308;19;20011;-80
2022/08/06 04:39:21;;;;;;;2.58;1.88;;;12.30;99.90;;;;;;3059740;19;19922;-80
2022/08/06 04:40:26;;;;;;;4.97;2.25;;;13.30;99.90;;;;;;3058742;19;20022;-80
2022/08/06 04:41:28;;;;;;;3.58;2.35;;;12.40;99.90;;;;;;3061635;19;20013;-80
2022/08/06 04:42:32;;;;;;;4.85;2.00;;;12.10;99.90;;;;;;3060504;19;20014;-79
2022/08/06 04:43:34;;;;;;;2.97;2.17;;;12.30;99.90;;;;;;3059830;19;20018;-80
2022/08/06 04:44:38;;;;;;;4.00;2.40;;;12.30;99.90;;;;;;3059626;19;20480;-80
2022/08/06 04:45:41;;;;;;;4.63;2.40;;;12.20;99.90;;;;;;3058347;19;20035;-79
2022/08/06 04:46:48;;;;;;;3.80;2.17;;;12.30;99.90;;;;;;3059636;19;20018;-79
2022/08/06 04:47:49;;;;;;;2.55;1.90;;;12.50;99.90;;;;;;3059891;19;20035;-79
2022/08/06 04:48:56;;;;;;;3.70;2.00;;;12.00;99.90;;;;;;3059788;19;20027;-79
2022/08/06 04:49:57;;;;;;;5.20;2.40;;;12.30;99.90;;;;;;3059920;19;20014;-80
2022/08/06 04:51:04;;;;;;;3.10;2.13;;;12.40;99.90;;;;;;3060315;19;20476;-80
2022/08/06 04:52:05;;;;;;;3.85;2.38;;;12.60;99.90;;;;;;3059102;19;20810;-80
2022/08/06 04:53:11;;;;;;;5.45;2.20;;;12.40;99.90;;;;;;3058962;19;20047;-79
2022/08/06 04:54:12;;;;;;;3.45;2.25;;;12.40;99.90;;;;;;3059279;19;20031;-79
2022/08/06 04:55:16;;;;;;;5.28;2.38;;;12.50;99.90;;;;;;3058841;19;20018;-79
2022/08/06 04:56:17;;;;;;;5.53;2.13;;;13.00;99.90;;;;;;3059180;19;20018;-80
2022/08/06 04:57:21;;;;;;;5.63;2.00;;;12.40;99.90;;;;;;3058289;19;20018;-79
2022/08/06 04:58:23;;;;;;;5.57;2.33;;;12.50;99.90;;;;;;3059561;19;20005;-79
2022/08/06 04:59:27;;;;;;;5.28;2.10;;;13.20;99.90;;;;;;3058990;19;20006;-80
2022/08/06 05:00:28;;;;;;;4.78;2.42;;;12.40;99.90;;;;;;3059123;19;20019;-81
2022/08/06 05:01:32;;;;;;;3.45;2.20;;;12.50;99.90;;;;;;3059033;19;20082;-79
2022/08/06 05:02:33;;;;;;;7.28;2.33;;;12.70;99.90;;;;;;3059540;19;20031;-80
2022/08/06 05:03:37;;;;;;;4.45;2.08;;;12.60;99.90;;;;;;3059352;19;20018;-81
2022/08/06 05:04:43;;;;;;;6.43;2.15;;;12.50;99.90;;;;;;3059376;19;20472;-80
2022/08/06 05:05:55;;;;;;;4.65;2.20;;;12.90;99.90;;;;;;3060633;19;20029;-79
2022/08/06 05:07:05;;;;;;;4.38;1.98;;;12.60;99.90;;;;;;3059136;19;20354;-80
2022/08/06 05:08:11;;;;;;;4.85;2.10;;;12.60;99.90;;;;;;3060552;19;20014;-80
2022/08/06 05:09:19;;;;;;;3.42;1.98;;;12.60;99.90;;;;;;3058852;19;20500;-80
2022/08/06 05:10:25;;;;;;;5.38;2.22;;;12.70;99.90;;;;;;3059284;19;20535;-80
2022/08/06 05:11:30;;;;;;;4.85;2.30;;;12.60;99.90;;;;;;3058946;19;20368;-80
2022/08/06 05:12:38;;;;;;;5.72;2.00;;;12.70;99.90;;;;;;3059090;19;20362;-78
2022/08/06 05:13:43;;;;;;;3.28;2.10;;;13.30;99.90;;;;;;3058773;19;20018;-79
2022/08/06 05:14:51;;;;;;;4.40;1.88;;;12.70;99.90;;;;;;3059401;19;19999;-80
2022/08/06 05:15:57;;;;;;;4.15;2.08;;;12.80;99.90;;;;;;3058988;19;20038;-80
2022/08/06 05:17:03;;;;;;;4.85;1.98;;;12.80;99.90;;;;;;3059824;19;20010;-80
2022/08/06 05:18:10;;;;;;;4.82;1.70;;;13.30;99.90;;;;;;3059142;19;20014;-80
2022/08/06 05:19:19;;;;;;;6.10;2.42;;;13.00;99.90;;;;;;3059372;19;20378;-80
2022/08/06 05:20:23;;;;;;;2.75;1.92;;;12.90;99.90;;;;;;3058879;19;20018;-79
2022/08/06 05:21:33;;;;;;;6.45;1.90;;;12.90;99.90;;;;;;3058871;19;20005;-80
2022/08/06 05:22:35;;;;;;;4.18;1.95;;;13.80;99.90;;;;;;3058864;19;20077;-80
2022/08/06 05:23:43;;;;;;;3.83;2.10;;;12.80;99.90;;;;;;3058503;19;20025;-79
2022/08/06 05:24:44;;;;;;;6.90;2.00;;;12.80;99.90;;;;;;3058694;19;20014;-80
2022/08/06 05:25:49;;;;;;;5.95;1.95;;;12.90;99.90;;;;;;3058821;19;20479;-80
2022/08/06 05:26:51;;;;;;;3.55;2.00;;;13.10;99.90;;;;;;3058774;19;20082;-80
2022/08/06 05:27:55;;;;;;;3.72;1.85;;;13.10;99.90;;;;;;3059051;19;20006;-80
2022/08/06 05:28:56;;;;;;;3.63;1.80;;;13.40;99.90;;;;;;3059144;19;20003;-80
2022/08/06 05:30:00;;;;;;;3.15;2.15;;;13.20;99.90;;;;;;3058092;19;20003;-80
2022/08/06 05:31:01;;;;;;;2.28;1.90;;;13.20;99.90;;;;;;3057916;19;20010;-80
2022/08/06 05:32:07;;;;;;;5.60;1.95;;;13.20;99.90;;;;;;3057948;19;20010;-80
2022/08/06 05:33:08;;;;;;;3.15;1.75;;;13.60;99.90;;;;;;3058840;19;20002;-80
2022/08/06 05:34:13;;;;;;;3.17;1.77;;;13.30;99.90;;;;;;3058488;19;20021;-81
2022/08/06 05:35:15;;;;;;;5.15;1.83;;;13.40;99.90;;;;;;3059836;19;20015;-80
2022/08/06 05:36:21;;;;;;;3.47;1.80;;;13.40;99.90;;;;;;3058318;19;20014;-80
2022/08/06 05:37:22;;;;;;;4.05;1.73;;;13.30;99.90;;;;;;3058544;19;20475;-80
2022/08/06 05:38:27;;;;;;;2.67;1.65;;;13.30;99.90;;;;;;3055405;19;20010;-80
2022/08/06 05:39:28;;;;;;;4.88;2.00;;;13.30;99.90;;;;;;3058440;19;20014;-80